DTTJ/DJE METAR and TAF weather

Enter ICAO airport designator
Station Type Date Time Source
DTTJ METAR 2020/09/21 09:30 UTC NOAA

DTTJ 210930Z 14011KT CAVOK 30/21 Q1016 NOSIG


Station Type Date Time Source
DTTJ Decoded METAR 2020/09/21 09:30 UTC NOAA

Djerba Mellita, Tunisia (DTTJ) 33-52N 010-46E 4M
Sep 21, 2020 - 05:30 AM EDT / 2020.09.21 0930 UTC
Wind: from the SE (140 degrees) at 13 MPH (11 KT):0
Visibility: greater than 7 mile(s):0
Temperature: 86 F (30 C)
Dew Point: 69 F (21 C)
Relative Humidity: 58%
Pressure (altimeter): 30.00 in. Hg (1016 hPa)
ob: DTTJ 210930Z 14011KT CAVOK 30/21 Q1016 NOSIG
cycle: 9

Station Type Date Time Source
DTTJ TAF 2020/09/21 06:54 UTC NOAA

TAF DTTJ 210500Z 2106/2206 36004KT 9999 FEW023
BECMG 2107/2109 11010KT
TEMPO 2115/2119 12020KT

Example: see airport list